Time;durP1;ratioP1;P1;durP2;ratioP2;P2;SDS_P1;SDS_P2;PMS_P1;PMS_P2;Temp;Humidity;BMP_temperature;BMP_pressure;BME280_temperature;BME280_humidity;BME280_pressure;Samples;Min_cycle;Max_cycle;Signal;HPM_P1;HPM_P2
2021/11/21 00:01:48;;;;;;;36.90;33.35;;;;;;;;;;5063784;28;20024;-49
2021/11/21 00:04:16;;;;;;;64.78;49.33;;;;;;;;;;5065528;28;20028;-47
2021/11/21 00:06:42;;;;;;;58.55;52.70;;;;;;;;;;5063317;28;20491;-46
2021/11/21 00:09:07;;;;;;;55.83;49.85;;;;;;;;;;5065609;28;20115;-49
2021/11/21 00:11:33;;;;;;;44.00;38.78;;;;;;;;;;5059989;28;20031;-49
2021/11/21 00:13:58;;;;;;;55.03;48.70;;;;;;;;;;5065371;28;20375;-48
2021/11/21 00:16:23;;;;;;;75.38;65.57;;;;;;;;;;5060942;28;20454;-46
2021/11/21 00:18:49;;;;;;;78.78;70.25;;;;;;;;;;5065446;28;20094;-45
2021/11/21 00:21:15;;;;;;;69.63;62.40;;;;;;;;;;5068628;28;20410;-46
2021/11/21 00:23:40;;;;;;;59.58;53.08;;;;;;;;;;5066830;28;20033;-46
2021/11/21 00:26:06;;;;;;;54.95;49.35;;;;;;;;;;5068666;28;20017;-49
2021/11/21 00:28:31;;;;;;;57.70;51.20;;;;;;;;;;5068860;28;20029;-45
2021/11/21 00:30:56;;;;;;;77.75;66.40;;;;;;;;;;5066208;28;20554;-49
2021/11/21 00:33:22;;;;;;;57.70;51.50;;;;;;;;;;5066512;28;20021;-46
2021/11/21 00:35:47;;;;;;;40.20;36.15;;;;;;;;;;5063931;28;20032;-51
2021/11/21 00:38:13;;;;;;;33.38;29.48;;;;;;;;;;5068219;28;20016;-48
2021/11/21 00:40:38;;;;;;;32.17;28.73;;;;;;;;;;5065623;28;20416;-48
2021/11/21 00:43:04;;;;;;;31.88;24.75;;;;;;;;;;5067022;28;20486;-47
2021/11/21 00:45:30;;;;;;;31.45;24.70;;;;;;;;;;5066678;28;20024;-45
2021/11/21 00:47:55;;;;;;;29.58;24.77;;;;;;;;;;5066838;28;20029;-48
2021/11/21 00:50:28;;;;;;;22.70;19.70;;;;;;;;;;5067460;28;20736;-49
2021/11/21 00:53:02;;;;;;;22.65;20.40;;;;;;;;;;5066238;28;20090;-48
2021/11/21 00:55:36;;;;;;;27.88;24.67;;;;;;;;;;5063672;28;20093;-46
2021/11/21 00:58:02;;;;;;;18.92;17.13;;;;;;;;;;5066360;28;20029;-45
2021/11/21 01:00:28;;;;;;;16.77;13.38;;;;;;;;;;5062945;28;20105;-48
2021/11/21 01:02:53;;;;;;;18.63;14.60;;;;;;;;;;5063585;28;20478;-49
2021/11/21 01:05:18;;;;;;;13.57;11.25;;;;;;;;;;5060073;28;20067;-44
2021/11/21 01:07:47;;;;;;;19.10;14.65;;;;;;;;;;5067532;28;20082;-52
2021/11/21 01:10:15;;;;;;;18.77;16.83;;;;;;;;;;5065218;28;20039;-48
2021/11/21 01:12:40;;;;;;;21.75;17.75;;;;;;;;;;5063967;28;20027;-45
2021/11/21 01:15:07;;;;;;;22.08;15.13;;;;;;;;;;5067909;28;20017;-50
2021/11/21 01:17:32;;;;;;;14.32;12.02;;;;;;;;;;5065354;28;20118;-48
2021/11/21 01:20:00;;;;;;;14.07;10.30;;;;;;;;;;5067157;28;20068;-49
2021/11/21 01:22:29;;;;;;;15.93;8.98;;;;;;;;;;5066907;28;20518;-44
2021/11/21 01:24:55;;;;;;;9.93;6.97;;;;;;;;;;5067007;28;20522;-47
2021/11/21 01:27:21;;;;;;;9.68;7.93;;;;;;;;;;5064815;28;20017;-49
2021/11/21 01:29:46;;;;;;;11.75;10.45;;;;;;;;;;5067118;28;20099;-47
2021/11/21 01:32:14;;;;;;;15.73;14.00;;;;;;;;;;5062600;28;20027;-48
2021/11/21 01:34:39;;;;;;;13.38;9.00;;;;;;;;;;5066431;28;20023;-46
2021/11/21 01:37:05;;;;;;;8.07;6.72;;;;;;;;;;5062362;28;20040;-49
2021/11/21 01:39:30;;;;;;;9.15;8.05;;;;;;;;;;5066684;28;20027;-45
2021/11/21 01:41:55;;;;;;;13.20;7.82;;;;;;;;;;5064525;28;20032;-44
2021/11/21 01:44:21;;;;;;;11.65;9.05;;;;;;;;;;5067376;28;20020;-46
2021/11/21 01:46:48;;;;;;;14.77;8.35;;;;;;;;;;5067046;28;20053;-46
2021/11/21 01:49:14;;;;;;;27.23;18.55;;;;;;;;;;5066724;28;20032;-48
2021/11/21 01:51:39;;;;;;;17.15;14.13;;;;;;;;;;5063576;28;20198;-45
2021/11/21 01:54:05;;;;;;;11.10;9.65;;;;;;;;;;5066394;28;20745;-48
2021/11/21 01:56:31;;;;;;;12.32;8.60;;;;;;;;;;5067004;28;20096;-46
2021/11/21 01:58:57;;;;;;;19.05;13.18;;;;;;;;;;5066646;28;20062;-46
2021/11/21 02:01:23;;;;;;;21.42;15.85;;;;;;;;;;5066231;28;20128;-48
2021/11/21 02:03:48;;;;;;;20.13;14.10;;;;;;;;;;5064834;28;20020;-50
2021/11/21 02:06:14;;;;;;;12.93;11.73;;;;;;;;;;5066623;28;20081;-51
2021/11/21 02:08:39;;;;;;;12.40;10.18;;;;;;;;;;5065000;28;20150;-50
2021/11/21 02:11:06;;;;;;;11.35;7.05;;;;;;;;;;5064313;28;20024;-47
2021/11/21 02:13:31;;;;;;;7.68;6.97;;;;;;;;;;5066355;28;20040;-51
2021/11/21 02:15:57;;;;;;;13.18;6.55;;;;;;;;;;5066387;28;20027;-49
2021/11/21 02:18:22;;;;;;;8.27;6.88;;;;;;;;;;5066961;28;20031;-49
2021/11/21 02:20:48;;;;;;;16.75;6.82;;;;;;;;;;5066509;28;20581;-48
2021/11/21 02:23:14;;;;;;;10.40;6.00;;;;;;;;;;5065761;28;20051;-49
2021/11/21 02:25:40;;;;;;;7.00;5.68;;;;;;;;;;5065226;28;20475;-48
2021/11/21 02:28:06;;;;;;;9.65;6.38;;;;;;;;;;5066924;28;20260;-53
2021/11/21 02:30:31;;;;;;;6.00;4.43;;;;;;;;;;5065416;28;20016;-46
2021/11/21 02:32:57;;;;;;;8.95;4.88;;;;;;;;;;5063738;28;20032;-49
2021/11/21 02:35:23;;;;;;;4.70;4.15;;;;;;;;;;5064943;28;20025;-50
2021/11/21 02:37:49;;;;;;;10.45;4.68;;;;;;;;;;5065400;28;20045;-49
2021/11/21 02:40:14;;;;;;;9.60;4.82;;;;;;;;;;5064578;28;20031;-48
2021/11/21 02:42:40;;;;;;;6.28;4.63;;;;;;;;;;5064957;28;20130;-48
2021/11/21 02:45:07;;;;;;;10.02;6.63;;;;;;;;;;5066103;28;20028;-48
2021/11/21 02:47:33;;;;;;;17.50;5.93;;;;;;;;;;5064570;28;20387;-49
2021/11/21 02:49:59;;;;;;;9.98;5.28;;;;;;;;;;5065168;28;20086;-50
2021/11/21 02:52:25;;;;;;;5.65;4.80;;;;;;;;;;5063416;28;20021;-52
2021/11/21 02:54:52;;;;;;;8.07;4.57;;;;;;;;;;5067415;28;20024;-50
2021/11/21 02:57:18;;;;;;;6.68;4.28;;;;;;;;;;5066824;28;20013;-49
2021/11/21 02:59:43;;;;;;;8.93;5.45;;;;;;;;;;5066561;28;20026;-48
2021/11/21 03:02:08;;;;;;;13.93;8.93;;;;;;;;;;5066560;28;20028;-48
2021/11/21 03:04:35;;;;;;;12.77;8.77;;;;;;;;;;5066542;28;20335;-50
2021/11/21 03:07:00;;;;;;;12.93;9.60;;;;;;;;;;5062919;28;20024;-53
2021/11/21 03:09:25;;;;;;;14.88;11.05;;;;;;;;;;5066182;28;20028;-53
2021/11/21 03:11:52;;;;;;;12.75;10.07;;;;;;;;;;5061418;28;20442;-51
2021/11/21 03:14:19;;;;;;;12.25;8.27;;;;;;;;;;5064865;28;20029;-52
2021/11/21 03:16:46;;;;;;;9.27;7.82;;;;;;;;;;5064155;28;20020;-51
2021/11/21 03:19:11;;;;;;;11.07;7.40;;;;;;;;;;5065852;28;20548;-53
2021/11/21 03:21:36;;;;;;;15.02;7.70;;;;;;;;;;5065862;28;20032;-49
2021/11/21 03:24:02;;;;;;;8.40;6.43;;;;;;;;;;5064545;28;20028;-52
2021/11/21 03:26:29;;;;;;;14.77;6.47;;;;;;;;;;5066032;28;20021;-52
2021/11/21 03:28:54;;;;;;;7.45;5.13;;;;;;;;;;5064758;28;20198;-46
2021/11/21 03:31:19;;;;;;;7.30;5.28;;;;;;;;;;5063049;28;20507;-50
2021/11/21 03:33:45;;;;;;;6.72;5.75;;;;;;;;;;5065988;28;20020;-52
2021/11/21 03:36:10;;;;;;;17.02;7.82;;;;;;;;;;5065854;28;20072;-49
2021/11/21 03:38:35;;;;;;;11.20;6.03;;;;;;;;;;5066694;28;20123;-49
2021/11/21 03:41:02;;;;;;;6.60;5.55;;;;;;;;;;5064127;28;20545;-49
2021/11/21 03:43:27;;;;;;;9.82;5.22;;;;;;;;;;5066168;28;20025;-53
2021/11/21 03:45:53;;;;;;;6.85;4.78;;;;;;;;;;5065922;28;20032;-47
2021/11/21 03:48:18;;;;;;;7.65;5.32;;;;;;;;;;5065201;28;20151;-50
2021/11/21 03:50:44;;;;;;;7.75;4.45;;;;;;;;;;5063252;28;20028;-47
2021/11/21 03:53:09;;;;;;;19.88;6.30;;;;;;;;;;5065136;28;20451;-50
2021/11/21 03:55:35;;;;;;;18.90;6.57;;;;;;;;;;5069458;28;20469;-50
2021/11/21 03:58:00;;;;;;;15.00;7.32;;;;;;;;;;5070107;28;20073;-48
2021/11/21 04:00:26;;;;;;;13.77;5.18;;;;;;;;;;5070238;28;20031;-47
2021/11/21 04:02:53;;;;;;;9.63;5.93;;;;;;;;;;5070221;28;20494;-49
2021/11/21 04:05:19;;;;;;;8.82;7.13;;;;;;;;;;5070330;28;20723;-49
2021/11/21 04:07:45;;;;;;;13.05;4.50;;;;;;;;;;5070637;28;20033;-51
2021/11/21 04:10:10;;;;;;;9.93;4.60;;;;;;;;;;5069136;28;20095;-50
2021/11/21 04:12:36;;;;;;;6.80;4.95;;;;;;;;;;5067750;28;20032;-47
2021/11/21 04:15:02;;;;;;;5.68;3.97;;;;;;;;;;5070495;28;20017;-50
2021/11/21 04:17:28;;;;;;;6.00;2.95;;;;;;;;;;5070249;28;20016;-49
2021/11/21 04:19:53;;;;;;;7.55;5.97;;;;;;;;;;5070132;28;20024;-52
2021/11/21 04:22:19;;;;;;;14.45;6.70;;;;;;;;;;5070242;28;20071;-50
2021/11/21 04:24:44;;;;;;;11.23;5.28;;;;;;;;;;5070657;28;20070;-50
2021/11/21 04:27:11;;;;;;;15.43;4.43;;;;;;;;;;5069525;28;20017;-52
2021/11/21 04:29:36;;;;;;;3.05;2.65;;;;;;;;;;5068782;28;20032;-50
2021/11/21 04:32:02;;;;;;;5.68;4.18;;;;;;;;;;5067556;28;20591;-52
2021/11/21 04:34:28;;;;;;;11.55;4.00;;;;;;;;;;5068088;28;20032;-52
2021/11/21 04:36:58;;;;;;;4.30;2.85;;;;;;;;;;5069123;28;20526;-52
2021/11/21 04:39:24;;;;;;;4.20;3.10;;;;;;;;;;5068019;28;20024;-49
2021/11/21 04:41:49;;;;;;;2.70;1.63;;;;;;;;;;5066171;28;20082;-50
2021/11/21 04:44:14;;;;;;;4.15;1.65;;;;;;;;;;5069615;28;20019;-44
2021/11/21 04:46:40;;;;;;;3.10;2.05;;;;;;;;;;5067884;28;20502;-46
2021/11/21 04:49:05;;;;;;;3.33;2.55;;;;;;;;;;5068791;28;20035;-47
2021/11/21 04:51:31;;;;;;;3.97;1.88;;;;;;;;;;5067761;28;20035;-47
2021/11/21 04:54:02;;;;;;;3.70;2.05;;;;;;;;;;5069515;28;20020;-48
2021/11/21 04:56:27;;;;;;;5.40;2.72;;;;;;;;;;5068376;28;20104;-46
2021/11/21 04:58:52;;;;;;;3.50;2.63;;;;;;;;;;5066412;28;20024;-51
2021/11/21 05:01:18;;;;;;;4.68;2.78;;;;;;;;;;5068502;28;20082;-50
2021/11/21 05:03:43;;;;;;;3.13;1.92;;;;;;;;;;5068419;28;20089;-49
2021/11/21 05:06:08;;;;;;;5.63;2.08;;;;;;;;;;5067713;28;20028;-49
2021/11/21 05:08:34;;;;;;;10.30;2.47;;;;;;;;;;5069221;28;20063;-49
2021/11/21 05:11:00;;;;;;;5.28;2.40;;;;;;;;;;5067006;28;20035;-48
2021/11/21 05:13:25;;;;;;;2.90;2.50;;;;;;;;;;5068505;28;20020;-49
2021/11/21 05:15:51;;;;;;;11.27;3.10;;;;;;;;;;5067764;28;20081;-48
2021/11/21 05:18:16;;;;;;;4.35;3.00;;;;;;;;;;5068273;28;20031;-50
2021/11/21 05:20:41;;;;;;;3.80;2.55;;;;;;;;;;5068764;28;20388;-49
2021/11/21 05:23:07;;;;;;;6.75;2.97;;;;;;;;;;5066841;28;20086;-47
2021/11/21 05:25:32;;;;;;;3.53;2.40;;;;;;;;;;5069148;28;20156;-50
2021/11/21 05:27:57;;;;;;;5.32;1.80;;;;;;;;;;5068887;28;20077;-47
2021/11/21 05:30:23;;;;;;;2.25;1.30;;;;;;;;;;5067418;28;20047;-50
2021/11/21 05:32:49;;;;;;;1.95;1.33;;;;;;;;;;5067154;28;20378;-50
2021/11/21 05:35:16;;;;;;;2.92;1.98;;;;;;;;;;5068311;28;20038;-50
2021/11/21 05:37:41;;;;;;;4.18;2.38;;;;;;;;;;5067940;28;20102;-52
2021/11/21 05:40:08;;;;;;;5.63;2.60;;;;;;;;;;5068365;28;20029;-47
2021/11/21 05:42:33;;;;;;;4.53;2.35;;;;;;;;;;5066050;28;20492;-51
2021/11/21 05:44:58;;;;;;;5.32;1.83;;;;;;;;;;5067913;28;20102;-50
2021/11/21 05:47:24;;;;;;;1.23;0.88;;;;;;;;;;5068114;28;20040;-49
2021/11/21 05:49:49;;;;;;;4.18;2.08;;;;;;;;;;5065757;28;20027;-49
2021/11/21 05:52:14;;;;;;;24.77;3.45;;;;;;;;;;5065127;28;20058;-51
2021/11/21 05:54:41;;;;;;;5.85;4.40;;;;;;;;;;5066710;28;20023;-49
2021/11/21 05:57:07;;;;;;;8.10;5.00;;;;;;;;;;5067670;28;20112;-48
2021/11/21 05:59:35;;;;;;;13.50;4.75;;;;;;;;;;5065834;28;20112;-49
2021/11/21 06:02:01;;;;;;;5.80;3.35;;;;;;;;;;5067330;28;20048;-48
2021/11/21 06:04:27;;;;;;;3.80;2.45;;;;;;;;;;5067099;28;20021;-46
2021/11/21 06:06:52;;;;;;;3.38;1.75;;;;;;;;;;5067421;28;20024;-48
2021/11/21 06:09:17;;;;;;;2.60;1.73;;;;;;;;;;5066531;28;20494;-52
2021/11/21 06:11:42;;;;;;;2.10;1.48;;;;;;;;;;5063864;28;20029;-50
2021/11/21 06:14:08;;;;;;;7.40;2.08;;;;;;;;;;5066562;28;20020;-51
2021/11/21 06:16:33;;;;;;;3.50;1.83;;;;;;;;;;5067407;28;20062;-51
2021/11/21 06:18:58;;;;;;;10.98;2.40;;;;;;;;;;5066909;28;20395;-52
2021/11/21 06:21:23;;;;;;;3.95;2.53;;;;;;;;;;5066285;28;20027;-50
2021/11/21 06:23:49;;;;;;;2.92;2.17;;;;;;;;;;5067337;28;20012;-48
2021/11/21 06:26:14;;;;;;;2.15;1.60;;;;;;;;;;5067263;28;20450;-51
2021/11/21 06:28:40;;;;;;;1.92;1.00;;;;;;;;;;5067188;28;20476;-51
2021/11/21 06:31:05;;;;;;;4.70;1.48;;;;;;;;;;5065162;28;20098;-49
2021/11/21 06:33:31;;;;;;;3.10;1.58;;;;;;;;;;5063726;28;20480;-49
2021/11/21 06:35:56;;;;;;;1.88;1.33;;;;;;;;;;5066624;28;20579;-49
2021/11/21 06:38:22;;;;;;;3.05;1.45;;;;;;;;;;5066563;28;20033;-51
2021/11/21 06:40:47;;;;;;;1.92;1.10;;;;;;;;;;5066650;28;20031;-51
2021/11/21 06:43:13;;;;;;;2.03;1.48;;;;;;;;;;5063883;28;20040;-51
2021/11/21 06:45:38;;;;;;;3.17;1.42;;;;;;;;;;5065610;28;20092;-50
2021/11/21 06:48:09;;;;;;;3.03;1.48;;;;;;;;;;5067235;28;20036;-50
2021/11/21 06:50:35;;;;;;;2.88;1.38;;;;;;;;;;5063753;28;20024;-50
2021/11/21 06:53:00;;;;;;;2.92;1.75;;;;;;;;;;5066369;28;20020;-50
2021/11/21 06:55:26;;;;;;;3.35;1.90;;;;;;;;;;5066766;28;20019;-50
2021/11/21 06:57:51;;;;;;;8.45;6.13;;;;;;;;;;5066292;28;20024;-49
2021/11/21 07:00:17;;;;;;;7.90;3.83;;;;;;;;;;5065844;28;20615;-50
2021/11/21 07:02:42;;;;;;;5.70;3.85;;;;;;;;;;5063768;28;20650;-49
2021/11/21 07:05:07;;;;;;;7.93;3.60;;;;;;;;;;5064977;28;20087;-49
2021/11/21 07:07:33;;;;;;;11.35;4.50;;;;;;;;;;5063980;28;20056;-50
2021/11/21 07:09:58;;;;;;;13.48;7.50;;;;;;;;;;5066579;28;20016;-46
2021/11/21 07:12:24;;;;;;;11.10;7.53;;;;;;;;;;5064785;28;20099;-46
2021/11/21 07:14:49;;;;;;;11.55;7.28;;;;;;;;;;5065369;28;20016;-47
2021/11/21 07:17:14;;;;;;;5.32;4.40;;;;;;;;;;5066295;28;20021;-49
2021/11/21 07:19:40;;;;;;;15.15;4.13;;;;;;;;;;5066364;28;20020;-50
2021/11/21 07:22:05;;;;;;;6.95;3.17;;;;;;;;;;5065317;28;20643;-48
2021/11/21 07:24:31;;;;;;;5.20;3.63;;;;;;;;;;5064449;28;20124;-50
2021/11/21 07:26:57;;;;;;;3.15;2.40;;;;;;;;;;5066648;28;20060;-52
2021/11/21 07:29:28;;;;;;;3.80;2.38;;;;;;;;;;5066656;28;20036;-52
2021/11/21 07:31:53;;;;;;;6.65;3.33;;;;;;;;;;5066387;28;20111;-49
2021/11/21 07:34:19;;;;;;;11.50;10.68;;;;;;;;;;5069782;28;20800;-49
2021/11/21 07:36:44;;;;;;;8.95;6.60;;;;;;;;;;5070367;28;20463;-49
2021/11/21 07:39:09;;;;;;;9.80;6.03;;;;;;;;;;5070293;28;20025;-52
2021/11/21 07:41:35;;;;;;;5.65;4.80;;;;;;;;;;5069541;28;20122;-52
2021/11/21 07:44:01;;;;;;;9.88;6.55;;;;;;;;;;5070046;28;20070;-50
2021/11/21 07:46:27;;;;;;;9.30;7.10;;;;;;;;;;5069790;28;20410;-47
2021/11/21 07:48:52;;;;;;;7.43;6.40;;;;;;;;;;5069154;28;20017;-48
2021/11/21 07:51:18;;;;;;;9.05;7.50;;;;;;;;;;5063749;28;20024;-48
2021/11/21 07:53:43;;;;;;;8.55;6.90;;;;;;;;;;5068533;28;20493;-46
2021/11/21 07:56:08;;;;;;;9.38;8.10;;;;;;;;;;5070043;28;20024;-52
2021/11/21 07:58:34;;;;;;;8.60;7.50;;;;;;;;;;5070035;28;20078;-45
2021/11/21 08:00:59;;;;;;;9.55;8.55;;;;;;;;;;5069831;28;20475;-46
2021/11/21 08:03:25;;;;;;;11.18;8.10;;;;;;;;;;5070087;28;20374;-48
2021/11/21 08:05:50;;;;;;;13.02;10.55;;;;;;;;;;5069671;28;20447;-48
2021/11/21 08:08:15;;;;;;;12.18;8.68;;;;;;;;;;5069734;28;20048;-49
2021/11/21 08:10:41;;;;;;;9.20;8.30;;;;;;;;;;5067141;28;20458;-47
2021/11/21 08:13:08;;;;;;;14.73;8.60;;;;;;;;;;5067574;28;20468;-46
2021/11/21 08:15:33;;;;;;;10.05;8.18;;;;;;;;;;5069227;28;20455;-46
2021/11/21 08:17:59;;;;;;;9.98;8.50;;;;;;;;;;5068728;28;20020;-50
2021/11/21 08:20:26;;;;;;;10.57;8.90;;;;;;;;;;5069693;28;20032;-46
2021/11/21 08:22:51;;;;;;;9.80;8.70;;;;;;;;;;5065557;28;20120;-54
2021/11/21 08:25:17;;;;;;;14.25;10.95;;;;;;;;;;5062613;28;20115;-50
2021/11/21 08:27:42;;;;;;;15.77;10.00;;;;;;;;;;5065719;28;20483;-50
2021/11/21 08:30:08;;;;;;;14.82;10.20;;;;;;;;;;5065821;28;20373;-53
2021/11/21 08:32:34;;;;;;;9.15;8.13;;;;;;;;;;5067128;28;20020;-56
2021/11/21 08:34:59;;;;;;;17.23;11.73;;;;;;;;;;5066106;28;20024;-53
2021/11/21 08:37:25;;;;;;;18.50;10.75;;;;;;;;;;5067040;28;20037;-55
2021/11/21 08:39:50;;;;;;;18.67;9.70;;;;;;;;;;5066371;28;20029;-51
2021/11/21 08:42:15;;;;;;;12.82;10.25;;;;;;;;;;5066194;28;20410;-51
2021/11/21 08:44:41;;;;;;;11.10;8.43;;;;;;;;;;5066601;28;20391;-53
2021/11/21 08:47:06;;;;;;;11.48;8.93;;;;;;;;;;5063271;28;20170;-58
2021/11/21 08:49:32;;;;;;;11.45;8.90;;;;;;;;;;5065417;28;20046;-51
2021/11/21 08:51:58;;;;;;;8.00;5.78;;;;;;;;;;5061950;28;20024;-61
2021/11/21 08:54:23;;;;;;;17.88;7.05;;;;;;;;;;5064822;28;20020;-61
2021/11/21 08:56:49;;;;;;;8.75;5.97;;;;;;;;;;5065156;28;20146;-63
2021/11/21 08:59:15;;;;;;;8.65;5.70;;;;;;;;;;5061705;28;20044;-65
2021/11/21 09:01:42;;;;;;;6.20;5.60;;;;;;;;;;5065640;28;20023;-63
2021/11/21 09:04:07;;;;;;;18.17;13.35;;;;;;;;;;5066899;28;20058;-63
2021/11/21 09:06:32;;;;;;;13.82;12.50;;;;;;;;;;5067977;28;20499;-63
2021/11/21 09:08:58;;;;;;;19.35;17.33;;;;;;;;;;5065878;28;20028;-62
2021/11/21 09:11:23;;;;;;;18.30;16.42;;;;;;;;;;5067340;28;20526;-61
2021/11/21 09:13:49;;;;;;;29.40;16.30;;;;;;;;;;5063821;28;20111;-62
2021/11/21 09:16:14;;;;;;;19.70;15.07;;;;;;;;;;5067302;28;20016;-61
2021/11/21 09:18:39;;;;;;;15.35;13.30;;;;;;;;;;5065851;28;20023;-63
2021/11/21 09:21:05;;;;;;;17.70;15.52;;;;;;;;;;5066388;28;20032;-63
2021/11/21 09:23:30;;;;;;;15.30;12.68;;;;;;;;;;5066792;28;20368;-62
2021/11/21 09:25:56;;;;;;;19.10;10.07;;;;;;;;;;5064041;28;20174;-62
2021/11/21 09:28:22;;;;;;;13.45;11.93;;;;;;;;;;5066188;28;20071;-62
2021/11/21 09:30:48;;;;;;;14.48;12.73;;;;;;;;;;5065742;28;20082;-62
2021/11/21 09:33:13;;;;;;;15.50;13.52;;;;;;;;;;5061660;28;20479;-60
2021/11/21 09:35:39;;;;;;;19.35;17.15;;;;;;;;;;5061292;28;20029;-61
2021/11/21 09:38:05;;;;;;;24.17;13.38;;;;;;;;;;5057448;28;20472;-62
2021/11/21 09:40:30;;;;;;;22.20;14.23;;;;;;;;;;5064556;28;20107;-63
2021/11/21 09:42:56;;;;;;;12.65;11.13;;;;;;;;;;5065451;28;20495;-66
2021/11/21 09:45:21;;;;;;;13.88;6.60;;;;;;;;;;5061241;28;20029;-63
2021/11/21 09:47:51;;;;;;;6.82;4.65;;;;;;;;;;5065678;28;20090;-62
2021/11/21 09:50:16;;;;;;;6.07;4.20;;;;;;;;;;5061711;28;20761;-63
2021/11/21 09:52:42;;;;;;;6.50;5.07;;;;;;;;;;5065979;28;20031;-63
2021/11/21 09:55:07;;;;;;;11.98;7.28;;;;;;;;;;5064908;28;20131;-63
2021/11/21 09:57:35;;;;;;;6.43;5.10;;;;;;;;;;5067529;28;20429;-63
2021/11/21 10:00:04;;;;;;;5.57;3.88;;;;;;;;;;5066502;28;20020;-64
2021/11/21 10:02:31;;;;;;;11.02;3.83;;;;;;;;;;5065655;28;20080;-65
2021/11/21 10:04:57;;;;;;;4.40;2.90;;;;;;;;;;5063194;28;20028;-65
2021/11/21 10:07:28;;;;;;;14.88;6.57;;;;;;;;;;5066826;28;20027;-65
2021/11/21 10:09:53;;;;;;;;;;;;;;;;;;5066421;28;20036;-65
2021/11/21 10:12:19;;;;;;;8.83;7.03;;;;;;;;;;5067440;28;19915;-66
2021/11/21 10:15:03;;;;;;;11.77;10.68;;;;;;;;;;5067832;28;20316;-64
2021/11/21 10:17:29;;;;;;;10.90;9.88;;;;;;;;;;5066766;28;20020;-64
2021/11/21 10:20:03;;;;;;;12.85;11.57;;;;;;;;;;5066250;28;20021;-65
2021/11/21 10:23:04;;;;;;;10.48;7.63;;;;;;;;;;5066405;28;20032;-64
2021/11/21 10:25:37;;;;;;;10.13;9.13;;;;;;;;;;5043821;28;20270;-64
2021/11/21 10:28:03;;;;;;;13.02;11.68;;;;;;;;;;5061748;28;20035;-64
2021/11/21 10:30:29;;;;;;;10.40;9.40;;;;;;;;;;5066525;28;20154;-65
2021/11/21 10:32:54;;;;;;;10.23;9.23;;;;;;;;;;5066726;28;20020;-64
2021/11/21 10:35:22;;;;;;;6.25;5.65;;;;;;;;;;5066518;28;20016;-64
2021/11/21 10:37:47;;;;;;;5.47;4.97;;;;;;;;;;5067453;28;20044;-64
2021/11/21 10:40:14;;;;;;;5.30;4.22;;;;;;;;;;5064442;28;20016;-64
2021/11/21 10:42:41;;;;;;;4.28;3.88;;;;;;;;;;5067394;28;20108;-64
2021/11/21 10:45:08;;;;;;;8.32;6.82;;;;;;;;;;5065749;28;20031;-64
2021/11/21 10:47:45;;;;;;;5.22;4.72;;;;;;;;;;5067958;28;20024;-64
2021/11/21 10:50:14;;;;;;;7.40;4.97;;;;;;;;;;5064686;28;20422;-65
2021/11/21 10:52:46;;;;;;;10.75;4.55;;;;;;;;;;5067219;28;20028;-66
2021/11/21 10:55:16;;;;;;;8.00;4.38;;;;;;;;;;5067423;28;20044;-66
2021/11/21 10:57:41;;;;;;;6.10;4.63;;;;;;;;;;5063699;28;20506;-66
2021/11/21 11:00:20;;;;;;;14.23;6.32;;;;;;;;;;5067107;28;20020;-66
2021/11/21 11:02:46;;;;;;;7.00;6.00;;;;;;;;;;5065628;28;20016;-65
2021/11/21 11:05:12;;;;;;;7.18;5.53;;;;;;;;;;5066427;28;20021;-66
2021/11/21 11:07:46;;;;;;;9.65;7.35;;;;;;;;;;5065569;28;20046;-66
2021/11/21 11:10:12;;;;;;;5.40;4.88;;;;;;;;;;5065476;28;20364;-65
2021/11/21 11:12:39;;;;;;;4.95;4.03;;;;;;;;;;5065450;28;20024;-66
2021/11/21 11:15:06;;;;;;;6.03;5.28;;;;;;;;;;5064680;28;20052;-65
2021/11/21 11:17:31;;;;;;;7.22;5.22;;;;;;;;;;5064583;28;20055;-66
2021/11/21 11:19:59;;;;;;;11.13;6.75;;;;;;;;;;5065267;28;20044;-65
2021/11/21 11:22:27;;;;;;;6.10;5.45;;;;;;;;;;5065680;28;20032;-66
2021/11/21 11:24:55;;;;;;;8.23;7.32;;;;;;;;;;5065563;28;20021;-66
2021/11/21 11:27:20;;;;;;;10.45;7.43;;;;;;;;;;5065538;28;20099;-66
2021/11/21 11:29:47;;;;;;;18.00;7.70;;;;;;;;;;5065593;28;20108;-66
2021/11/21 11:32:22;;;;;;;7.45;6.75;;;;;;;;;;5066426;28;20021;-66
2021/11/21 11:34:51;;;;;;;13.63;8.85;;;;;;;;;;5063199;28;20020;-66
2021/11/21 11:37:37;;;;;;;12.45;7.88;;;;;;;;;;5064924;28;20050;-66
2021/11/21 11:40:03;;;;;;;10.60;7.85;;;;;;;;;;5066011;28;20025;-66
2021/11/21 11:42:36;;;;;;;11.98;8.82;;;;;;;;;;5065320;28;20136;-65
2021/11/21 11:45:03;;;;;;;7.97;6.70;;;;;;;;;;5065960;28;20021;-66
2021/11/21 11:47:28;;;;;;;22.92;11.63;;;;;;;;;;5065049;28;20028;-66
2021/11/21 11:49:54;;;;;;;12.10;10.90;;;;;;;;;;5065254;28;20450;-66
2021/11/21 11:52:38;;;;;;;18.05;13.32;;;;;;;;;;5062656;28;20491;-65
2021/11/21 11:55:07;;;;;;;12.73;11.52;;;;;;;;;;5063708;28;20025;-66
2021/11/21 11:57:35;;;;;;;10.45;9.43;;;;;;;;;;5065284;28;20051;-66
2021/11/21 12:00:40;;;;;;;11.40;8.82;;;;;;;;;;5062886;28;20107;-66
2021/11/21 12:03:24;;;;;;;11.82;8.43;;;;;;;;;;5022592;28;20045;-66
2021/11/21 12:06:02;;;;;;;12.43;8.30;;;;;;;;;;5062541;28;20029;-66
2021/11/21 12:08:28;;;;;;;11.98;10.73;;;;;;;;;;5064085;28;20096;-66
2021/11/21 12:10:53;;;;;;;16.63;9.80;;;;;;;;;;5065457;28;20472;-66
2021/11/21 12:13:28;;;;;;;12.00;8.48;;;;;;;;;;5065155;28;20471;-66
2021/11/21 12:16:04;;;;;;;12.32;7.50;;;;;;;;;;5067105;28;20043;-66
2021/11/21 12:18:48;;;;;;;6.78;6.07;;;;;;;;;;5068973;28;20471;-65
2021/11/21 12:21:31;;;;;;;7.43;6.65;;;;;;;;;;5061888;28;20247;-65
2021/11/21 12:23:57;;;;;;;9.73;7.13;;;;;;;;;;5051618;28;20044;-64
2021/11/21 12:26:22;;;;;;;13.43;9.13;;;;;;;;;;5064908;28;20109;-65
2021/11/21 12:29:14;;;;;;;10.48;9.52;;;;;;;;;;5065679;28;20060;-65
2021/11/21 12:31:40;;;;;;;14.63;11.90;;;;;;;;;;5062383;28;20529;-65
2021/11/21 12:34:24;;;;;;;13.00;11.45;;;;;;;;;;5062639;28;20036;-65
2021/11/21 12:37:09;;;;;;;14.57;12.45;;;;;;;;;;5063614;28;20052;-65
2021/11/21 12:39:35;;;;;;;17.85;15.25;;;;;;;;;;5056154;28;20024;-65
2021/11/21 12:42:04;;;;;;;23.77;16.63;;;;;;;;;;5061092;28;20399;-65
2021/11/21 12:44:29;;;;;;;16.33;14.82;;;;;;;;;;5057803;28;20066;-65
2021/11/21 12:47:02;;;;;;;25.52;17.55;;;;;;;;;;5056945;28;20044;-64
2021/11/21 12:49:30;;;;;;;15.38;13.90;;;;;;;;;;5062254;28;20029;-65
2021/11/21 12:52:03;;;;;;;17.85;14.35;;;;;;;;;;5060912;28;20111;-65
2021/11/21 12:54:29;;;;;;;21.55;17.83;;;;;;;;;;5081166;28;20458;-65
2021/11/21 12:56:57;;;;;;;21.38;18.40;;;;;;;;;;5066033;28;20027;-65
2021/11/21 12:59:44;;;;;;;15.88;14.38;;;;;;;;;;5065997;28;20024;-65
2021/11/21 13:02:14;;;;;;;14.93;12.27;;;;;;;;;;5060448;28;20021;-65
2021/11/21 13:05:07;;;;;;;14.43;12.93;;;;;;;;;;5061905;28;20016;-65
2021/11/21 13:07:34;;;;;;;13.35;12.05;;;;;;;;;;5059253;28;20111;-65
2021/11/21 13:10:00;;;;;;;16.23;13.85;;;;;;;;;;5063983;28;20028;-65
2021/11/21 13:12:32;;;;;;;13.40;11.43;;;;;;;;;;5063466;28;20021;-65
2021/11/21 13:15:01;;;;;;;14.93;13.52;;;;;;;;;;5064632;28;20429;-65
2021/11/21 13:17:27;;;;;;;13.68;12.48;;;;;;;;;;5067861;28;20743;-65
2021/11/21 13:19:59;;;;;;;15.77;14.27;;;;;;;;;;5067423;28;20032;-65
2021/11/21 13:22:44;;;;;;;15.20;13.48;;;;;;;;;;5066508;28;20115;-64
2021/11/21 13:25:10;;;;;;;12.70;11.38;;;;;;;;;;5066403;28;20080;-64
2021/11/21 13:27:35;;;;;;;13.27;11.60;;;;;;;;;;5064437;28;20017;-63
2021/11/21 13:30:10;;;;;;;13.38;12.05;;;;;;;;;;5059119;28;20032;-63
2021/11/21 13:32:36;;;;;;;19.23;17.08;;;;;;;;;;5065827;28;20031;-63
2021/11/21 13:35:14;;;;;;;17.50;13.60;;;;;;;;;;5066310;28;20020;-64
2021/11/21 13:37:40;;;;;;;11.57;9.52;;;;;;;;;;5066697;28;20053;-64
2021/11/21 13:40:05;;;;;;;10.40;7.47;;;;;;;;;;5066540;28;20074;-63
2021/11/21 13:42:31;;;;;;;15.48;8.48;;;;;;;;;;5068061;28;20021;-63
2021/11/21 13:44:56;;;;;;;13.02;10.13;;;;;;;;;;5067771;28;20435;-63
2021/11/21 13:47:27;;;;;;;14.93;12.65;;;;;;;;;;5067889;28;20051;-64
2021/11/21 13:49:53;;;;;;;;;;;;;;;;;;5067921;28;20024;-64
2021/11/21 13:52:20;;;;;;;17.38;14.05;;;;;;;;;;5067829;28;20104;-64
2021/11/21 13:54:48;;;;;;;21.77;14.18;;;;;;;;;;5067330;28;20016;-64
2021/11/21 13:57:20;;;;;;;12.82;11.60;;;;;;;;;;5065960;28;20070;-64
2021/11/21 13:59:45;;;;;;;13.98;11.93;;;;;;;;;;5067851;28;20053;-64
2021/11/21 14:02:11;;;;;;;10.30;9.25;;;;;;;;;;5067330;28;20020;-64
2021/11/21 14:04:37;;;;;;;13.73;10.50;;;;;;;;;;5066601;28;20487;-64
2021/11/21 14:07:10;;;;;;;11.98;8.70;;;;;;;;;;5067054;28;20040;-64
2021/11/21 14:09:50;;;;;;;16.27;9.57;;;;;;;;;;5066900;28;20640;-64
2021/11/21 14:12:19;;;;;;;6.30;4.85;;;;;;;;;;5067443;28;20051;-64
2021/11/21 14:14:45;;;;;;;4.80;3.90;;;;;;;;;;5066579;28;20025;-64
2021/11/21 14:17:10;;;;;;;14.35;6.20;;;;;;;;;;5067718;28;20028;-64
2021/11/21 14:19:38;;;;;;;8.07;5.88;;;;;;;;;;5067601;28;20024;-64
2021/11/21 14:22:11;;;;;;;7.40;4.88;;;;;;;;;;5067024;28;20020;-65
2021/11/21 14:24:37;;;;;;;7.53;6.55;;;;;;;;;;5066962;28;20028;-65
2021/11/21 14:27:23;;;;;;;8.13;6.35;;;;;;;;;;5068090;28;20013;-64
2021/11/21 14:29:53;;;;;;;6.03;5.07;;;;;;;;;;5067329;28;20031;-64
2021/11/21 14:32:18;;;;;;;15.80;4.32;;;;;;;;;;5066684;28;20028;-64
2021/11/21 14:34:44;;;;;;;7.70;5.47;;;;;;;;;;5064248;28;20405;-65